Time;durP1;ratioP1;P1;durP2;ratioP2;P2;SDS_P1;SDS_P2;PMS_P1;PMS_P2;Temp;Humidity;BMP_temperature;BMP_pressure;BME280_temperature;BME280_humidity;BME280_pressure;Samples;Min_cycle;Max_cycle;Signal;HPM_P1;HPM_P2
2020/12/11 00:02:23;;;;;;;13.07;9.55;;;6.70;99.90;;;;;;5109441;28;20051;-54
2020/12/11 00:05:27;;;;;;;26.55;18.48;;;6.70;99.90;;;;;;5109890;28;20516;-51
2020/12/11 00:08:31;;;;;;;19.80;10.10;;;6.70;99.90;;;;;;5109351;28;20509;-54
2020/12/11 00:11:35;;;;;;;14.10;9.45;;;6.80;99.90;;;;;;5113222;28;20413;-53
2020/12/11 00:14:39;;;;;;;21.83;12.02;;;6.80;99.90;;;;;;5113166;28;20047;-55
2020/12/11 00:17:43;;;;;;;42.08;34.80;;;6.70;99.90;;;;;;5113401;28;20044;-53
2020/12/11 00:20:48;;;;;;;40.72;36.42;;;6.70;99.90;;;;;;5113140;28;20050;-52
2020/12/11 00:23:52;;;;;;;35.97;27.67;;;6.70;99.90;;;;;;5113291;28;20042;-53
2020/12/11 00:26:55;;;;;;;21.98;12.93;;;6.70;99.90;;;;;;5121591;27;20396;-56
2020/12/11 00:29:59;;;;;;;13.82;10.43;;;6.70;99.90;;;;;;5132998;27;20508;-53
2020/12/11 00:33:04;;;;;;;23.58;21.20;;;6.70;99.90;;;;;;5133235;27;20050;-56
2020/12/11 00:36:08;;;;;;;17.02;15.25;;;6.70;99.90;;;;;;5133310;27;20038;-51
2020/12/11 00:39:11;;;;;;;9.13;7.07;;;6.70;99.90;;;;;;5133258;27;20038;-56
2020/12/11 00:42:20;;;;;;;13.43;8.95;;;6.70;99.90;;;;;;5132953;27;20039;-56
2020/12/11 00:45:24;;;;;;;11.52;8.45;;;6.70;99.90;;;;;;5132525;27;20042;-53
2020/12/11 00:48:28;;;;;;;23.05;12.68;;;6.80;99.90;;;;;;5133378;27;20543;-52
2020/12/11 00:51:32;;;;;;;17.58;11.60;;;6.80;99.90;;;;;;5132751;27;20050;-50
2020/12/11 00:54:37;;;;;;;17.70;12.07;;;6.70;99.90;;;;;;5112428;28;20051;-52
2020/12/11 00:57:41;;;;;;;18.85;12.68;;;6.70;99.90;;;;;;5111689;28;20508;-52
2020/12/11 01:00:46;;;;;;;22.67;15.57;;;6.70;99.90;;;;;;5111960;28;20050;-53
2020/12/11 01:03:49;;;;;;;28.58;17.23;;;6.60;99.90;;;;;;5112551;28;20043;-52
2020/12/11 01:06:53;;;;;;;34.17;20.83;;;6.60;99.90;;;;;;5111653;28;20055;-50
2020/12/11 01:09:57;;;;;;;23.60;16.35;;;6.60;99.90;;;;;;5111884;28;20043;-50
2020/12/11 01:13:01;;;;;;;24.92;16.60;;;6.60;99.90;;;;;;5113030;27;20039;-54
2020/12/11 01:16:06;;;;;;;28.40;18.58;;;6.60;99.90;;;;;;5116567;27;20051;-55
2020/12/11 01:19:10;;;;;;;26.20;17.52;;;6.60;99.90;;;;;;5111379;28;20038;-51
2020/12/11 01:22:16;;;;;;;25.90;17.77;;;6.50;99.90;;;;;;5111155;28;20039;-53
2020/12/11 01:25:19;;;;;;;76.25;45.15;;;6.50;99.90;;;;;;5111777;28;20051;-50
2020/12/11 01:28:23;;;;;;;85.47;44.50;;;6.50;99.90;;;;;;5117210;27;20042;-54
2020/12/11 01:31:27;;;;;;;38.65;25.95;;;6.50;99.90;;;;;;5131246;27;20046;-51
2020/12/11 01:34:31;;;;;;;29.73;21.40;;;6.50;99.90;;;;;;5131559;27;20049;-52
2020/12/11 01:37:35;;;;;;;30.50;21.10;;;6.50;99.90;;;;;;5131895;27;20120;-52
2020/12/11 01:40:39;;;;;;;25.67;16.60;;;6.40;99.90;;;;;;5131009;27;20042;-50
2020/12/11 01:43:44;;;;;;;25.10;15.77;;;6.40;99.90;;;;;;5117758;27;20042;-50
2020/12/11 01:46:50;;;;;;;345.73;33.65;;;6.30;99.90;;;;;;5131588;27;20047;-53
2020/12/11 01:49:55;;;;;;;1217.35;86.20;;;6.00;99.90;;;;;;5131037;27;20053;-51
2020/12/11 01:52:59;;;;;;;1752.38;128.98;;;5.60;99.90;;;;;;5131345;27;20051;-50
2020/12/11 01:56:06;;;;;;;269.75;33.35;;;5.50;99.90;;;;;;5112275;27;20062;-50
2020/12/11 01:59:18;;;;;;;202.93;29.52;;;5.50;99.90;;;;;;5110588;28;20039;-51
2020/12/11 02:02:26;;;;;;;608.28;56.38;;;5.60;99.90;;;;;;5110499;28;20401;-55
2020/12/11 02:05:31;;;;;;;763.70;65.82;;;5.70;99.90;;;;;;5110067;28;20046;-50
2020/12/11 02:08:35;;;;;;;486.60;51.72;;;5.70;99.90;;;;;;5110597;28;20034;-51
2020/12/11 02:11:40;;;;;;;332.63;34.28;;;5.70;99.90;;;;;;5105600;28;20405;-49
2020/12/11 02:14:48;;;;;;;112.13;19.13;;;5.70;99.90;;;;;;5127016;27;20432;-51
2020/12/11 02:17:55;;;;;;;260.27;25.75;;;5.70;99.90;;;;;;5117724;27;20051;-52
2020/12/11 02:20:59;;;;;;;90.45;16.40;;;5.70;99.90;;;;;;5109871;28;20062;-55
2020/12/11 02:24:04;;;;;;;175.88;19.50;;;5.70;99.90;;;;;;5110216;28;20257;-55
2020/12/11 02:27:09;;;;;;;383.10;32.35;;;5.60;99.90;;;;;;5119650;27;20523;-50
2020/12/11 02:30:14;;;;;;;76.88;15.63;;;5.60;99.90;;;;;;5116941;27;20058;-49
2020/12/11 02:33:18;;;;;;;437.55;37.42;;;5.50;99.90;;;;;;5129664;27;20058;-51
2020/12/11 02:36:22;;;;;;;100.85;15.27;;;5.60;99.90;;;;;;5130276;27;20046;-53
2020/12/11 02:39:27;;;;;;;281.35;23.35;;;5.60;99.90;;;;;;5130683;27;20405;-51
2020/12/11 02:42:31;;;;;;;161.95;20.52;;;5.60;99.90;;;;;;5130206;27;20046;-51
2020/12/11 02:45:35;;;;;;;83.15;15.95;;;5.60;99.90;;;;;;5118186;27;20547;-50
2020/12/11 02:48:39;;;;;;;111.78;15.55;;;5.50;99.90;;;;;;5119394;27;20045;-51
2020/12/11 02:51:43;;;;;;;185.27;18.02;;;5.50;99.90;;;;;;5119442;27;20401;-51
2020/12/11 02:54:47;;;;;;;340.05;24.95;;;5.40;99.90;;;;;;5115176;27;20042;-49
2020/12/11 02:57:52;;;;;;;398.05;29.90;;;5.30;99.90;;;;;;5109888;28;20042;-50
2020/12/11 03:00:56;;;;;;;178.55;18.98;;;5.20;99.90;;;;;;5108673;28;20042;-48
2020/12/11 03:04:00;;;;;;;96.95;15.05;;;5.20;99.90;;;;;;5109823;28;20034;-53
2020/12/11 03:07:04;;;;;;;270.48;21.85;;;5.20;99.90;;;;;;5109764;28;20043;-50
2020/12/11 03:10:09;;;;;;;383.25;29.73;;;5.20;99.90;;;;;;5109834;28;20046;-51
2020/12/11 03:13:13;;;;;;;179.80;23.10;;;5.20;99.90;;;;;;5108917;28;20042;-50
2020/12/11 03:16:18;;;;;;;165.13;20.45;;;5.30;99.90;;;;;;5108709;28;20047;-51
2020/12/11 03:19:22;;;;;;;64.93;12.80;;;5.30;99.90;;;;;;5109810;28;20047;-50
2020/12/11 03:22:26;;;;;;;75.50;13.43;;;5.20;99.90;;;;;;5108989;28;20058;-50
2020/12/11 03:25:30;;;;;;;107.72;13.60;;;5.10;99.90;;;;;;5109858;28;20524;-51
2020/12/11 03:28:34;;;;;;;146.43;15.70;;;4.90;99.90;;;;;;5117798;28;20050;-49
2020/12/11 03:31:38;;;;;;;280.33;21.58;;;4.80;99.90;;;;;;5129545;28;20061;-50
2020/12/11 03:34:42;;;;;;;151.10;17.75;;;4.70;99.90;;;;;;5128633;28;20053;-50
2020/12/11 03:37:46;;;;;;;28.38;9.50;;;4.60;99.90;;;;;;5130128;28;20042;-51
2020/12/11 03:40:51;;;;;;;85.18;14.82;;;4.50;99.90;;;;;;5120806;28;20392;-53
2020/12/11 03:43:55;;;;;;;40.53;11.07;;;4.40;99.90;;;;;;5121436;27;20047;-49
2020/12/11 03:46:59;;;;;;;26.38;10.55;;;4.40;99.90;;;;;;5133775;27;20046;-48
2020/12/11 03:50:03;;;;;;;69.07;14.13;;;4.30;99.90;;;;;;5130279;27;20132;-50
2020/12/11 03:53:08;;;;;;;34.30;10.38;;;4.40;99.90;;;;;;5132908;27;20054;-50
2020/12/11 03:56:13;;;;;;;64.90;10.75;;;4.40;99.90;;;;;;5113816;27;20328;-50
2020/12/11 03:59:18;;;;;;;13.18;8.23;;;4.30;99.90;;;;;;5112767;28;20042;-51
2020/12/11 04:02:22;;;;;;;16.13;8.45;;;4.30;99.90;;;;;;5112747;28;20550;-52
2020/12/11 04:05:26;;;;;;;12.23;7.15;;;4.20;99.90;;;;;;5113274;28;20066;-49
2020/12/11 04:08:30;;;;;;;8.60;6.50;;;4.20;99.90;;;;;;5113281;28;20409;-50
2020/12/11 04:11:35;;;;;;;10.43;6.82;;;4.20;99.90;;;;;;5112077;28;20306;-50
2020/12/11 04:14:40;;;;;;;12.50;7.55;;;4.20;99.90;;;;;;5112810;28;20050;-51
2020/12/11 04:17:45;;;;;;;10.68;6.53;;;4.20;99.90;;;;;;5112517;28;20410;-49
2020/12/11 04:20:51;;;;;;;11.30;7.13;;;4.20;99.90;;;;;;5112876;28;20047;-50
2020/12/11 04:23:56;;;;;;;9.18;6.07;;;4.00;99.90;;;;;;5112937;28;20035;-50
2020/12/11 04:27:00;;;;;;;10.32;5.80;;;4.00;99.90;;;;;;5124740;27;20031;-50
2020/12/11 04:30:04;;;;;;;10.15;5.32;;;4.10;99.90;;;;;;5133245;27;20058;-48
2020/12/11 04:33:10;;;;;;;9.18;5.65;;;4.10;99.90;;;;;;5132309;27;20042;-50
2020/12/11 04:36:16;;;;;;;8.52;5.53;;;4.00;99.90;;;;;;5131898;27;20035;-50
2020/12/11 04:39:22;;;;;;;7.68;5.75;;;4.00;99.90;;;;;;5125611;27;20043;-50
2020/12/11 04:42:31;;;;;;;9.40;5.80;;;4.00;99.90;;;;;;5132227;27;20043;-51
2020/12/11 04:45:38;;;;;;;10.52;5.85;;;3.90;99.90;;;;;;5133068;27;20043;-50
2020/12/11 04:48:42;;;;;;;116.25;13.48;;;3.80;99.90;;;;;;5132706;27;20151;-50
2020/12/11 04:51:51;;;;;;;590.17;38.08;;;3.70;99.90;;;;;;5132002;27;20054;-50
2020/12/11 04:55:02;;;;;;;592.78;35.63;;;3.50;99.90;;;;;;5112331;28;20046;-50
2020/12/11 04:58:15;;;;;;;87.90;10.95;;;3.30;99.90;;;;;;5111934;28;20047;-49
2020/12/11 05:01:32;;;;;;;277.27;19.00;;;3.20;99.90;;;;;;5111685;28;20528;-51
2020/12/11 05:04:37;;;;;;;230.57;18.65;;;3.30;99.90;;;;;;5111801;28;20043;-49
2020/12/11 05:07:43;;;;;;;162.27;12.48;;;3.40;99.90;;;;;;5111801;28;20046;-50
2020/12/11 05:10:48;;;;;;;53.97;9.80;;;3.40;99.90;;;;;;5111706;28;20105;-49
2020/12/11 05:13:51;;;;;;;14.20;7.38;;;3.50;99.90;;;;;;5111483;28;20105;-50
2020/12/11 05:17:04;;;;;;;28.15;6.72;;;3.50;99.90;;;;;;5121689;27;20047;-50
2020/12/11 05:20:10;;;;;;;42.55;8.90;;;3.60;99.90;;;;;;5111640;28;20067;-50
2020/12/11 05:23:14;;;;;;;16.23;7.93;;;3.50;99.90;;;;;;5110504;28;20039;-50
2020/12/11 05:26:19;;;;;;;10.50;7.68;;;3.50;99.90;;;;;;5129515;27;20516;-50
2020/12/11 05:29:29;;;;;;;13.38;8.85;;;3.50;99.90;;;;;;5126028;27;20054;-50
2020/12/11 05:32:44;;;;;;;32.40;18.45;;;3.50;99.90;;;;;;5131215;27;20062;-50
2020/12/11 05:35:49;;;;;;;38.05;13.50;;;3.60;99.90;;;;;;5123580;27;20050;-50
2020/12/11 05:38:52;;;;;;;62.22;12.50;;;3.60;99.90;;;;;;5119793;27;20039;-51
2020/12/11 05:41:58;;;;;;;21.80;14.57;;;3.60;99.90;;;;;;5125240;27;20042;-51
2020/12/11 05:45:17;;;;;;;22.45;13.95;;;3.50;99.90;;;;;;5129310;27;20046;-50
2020/12/11 05:48:34;;;;;;;20.08;12.55;;;3.50;99.90;;;;;;5111505;27;20042;-49
2020/12/11 05:51:39;;;;;;;19.52;9.93;;;3.50;99.90;;;;;;5115123;27;20039;-50
2020/12/11 05:54:48;;;;;;;486.13;33.67;;;3.30;99.90;;;;;;5113462;27;20042;-50
2020/12/11 05:57:58;;;;;;;653.47;44.15;;;3.00;99.90;;;;;;5116481;27;20043;-50
2020/12/11 06:01:03;;;;;;;594.90;41.90;;;2.90;99.90;;;;;;5119055;27;20055;-51
2020/12/11 06:04:10;;;;;;;357.40;32.20;;;2.80;99.90;;;;;;5111236;27;20063;-51
2020/12/11 06:07:15;;;;;;;435.10;30.25;;;2.80;99.90;;;;;;5114265;27;20042;-51
2020/12/11 06:10:22;;;;;;;404.92;28.05;;;2.90;99.90;;;;;;5116322;27;20042;-51
2020/12/11 06:13:53;;;;;;;1598.25;130.15;;;3.00;99.90;;;;;;5114022;27;20042;-56
2020/12/11 06:17:00;;;;;;;165.55;16.63;;;3.00;99.90;;;;;;5108675;27;20036;-49
2020/12/11 06:20:07;;;;;;;102.05;10.23;;;3.00;99.90;;;;;;5110053;27;20058;-49
2020/12/11 06:23:25;;;;;;;221.38;14.88;;;3.00;99.90;;;;;;5110068;27;20038;-53
2020/12/11 06:26:29;;;;;;;1999.90;588.47;;;3.00;99.90;;;;;;5114957;27;20034;-50
2020/12/11 06:29:35;;;;;;;1999.90;623.63;;;3.00;99.90;;;;;;5115510;27;20524;-51
2020/12/11 06:32:39;;;;;;;99.38;10.13;;;3.10;99.90;;;;;;5110051;27;20090;-50
2020/12/11 06:35:56;;;;;;;34.83;5.85;;;3.00;99.90;;;;;;5116696;27;20109;-50
2020/12/11 06:39:00;;;;;;;57.13;6.38;;;2.90;99.90;;;;;;5120188;27;20050;-51
2020/12/11 06:42:06;;;;;;;414.48;27.38;;;2.70;99.90;;;;;;5110812;27;20046;-51
2020/12/11 06:45:26;;;;;;;32.28;4.18;;;2.60;99.90;;;;;;5111417;27;20043;-53
2020/12/11 06:48:30;;;;;;;209.38;15.77;;;2.50;99.90;;;;;;5114355;27;20039;-50
2020/12/11 06:51:56;;;;;;;193.82;12.07;;;2.50;99.90;;;;;;5114838;27;20051;-51
2020/12/11 06:55:01;;;;;;;138.20;10.57;;;2.50;99.90;;;;;;5114794;27;20035;-51
2020/12/11 06:58:17;;;;;;;1593.78;130.68;;;2.50;99.90;;;;;;5115035;27;20050;-52
2020/12/11 07:01:21;;;;;;;1973.35;168.90;;;2.50;99.90;;;;;;5113048;27;20125;-54
2020/12/11 07:04:37;;;;;;;448.92;32.83;;;2.70;99.90;;;;;;5116968;27;20038;-56
2020/12/11 07:07:41;;;;;;;46.80;5.70;;;2.70;99.90;;;;;;5112398;28;20786;-52
2020/12/11 07:10:46;;;;;;;129.65;11.63;;;2.80;99.90;;;;;;5111578;28;20034;-54
2020/12/11 07:13:51;;;;;;;152.15;11.75;;;2.80;99.90;;;;;;5121676;28;20054;-54
2020/12/11 07:16:55;;;;;;;433.80;26.88;;;2.80;99.90;;;;;;5127708;28;20046;-54
2020/12/11 07:20:00;;;;;;;156.98;10.10;;;2.80;99.90;;;;;;5118195;27;20491;-53
2020/12/11 07:23:05;;;;;;;259.25;15.18;;;2.90;99.90;;;;;;5117089;27;20046;-55
2020/12/11 07:26:11;;;;;;;234.75;14.82;;;2.90;99.90;;;;;;5116940;27;20042;-52
2020/12/11 07:29:17;;;;;;;301.77;20.63;;;2.90;99.90;;;;;;5116783;27;20039;-55
2020/12/11 07:32:22;;;;;;;210.38;12.90;;;3.00;99.90;;;;;;5125922;27;20050;-55
2020/12/11 07:35:26;;;;;;;451.35;26.85;;;3.10;99.90;;;;;;5111317;28;20265;-54
2020/12/11 07:38:31;;;;;;;33.15;5.88;;;3.20;99.90;;;;;;5117909;27;20500;-55
2020/12/11 07:41:39;;;;;;;166.55;11.20;;;3.30;99.90;;;;;;5113003;28;20083;-53
2020/12/11 07:44:44;;;;;;;337.42;19.15;;;3.30;99.90;;;;;;5112153;27;20043;-53
2020/12/11 07:47:48;;;;;;;115.78;10.20;;;3.40;99.90;;;;;;5116529;27;20394;-55
2020/12/11 07:51:00;;;;;;;17.00;4.25;;;3.40;99.90;;;;;;5112570;28;20046;-57
2020/12/11 07:54:04;;;;;;;140.30;10.35;;;3.50;99.90;;;;;;5113034;28;20105;-55
2020/12/11 07:57:13;;;;;;;113.55;12.98;;;3.60;99.90;;;;;;5113095;27;20062;-54
2020/12/11 08:00:18;;;;;;;64.32;7.55;;;3.70;99.90;;;;;;5130321;27;20404;-56
2020/12/11 08:03:27;;;;;;;43.33;7.55;;;3.70;99.90;;;;;;5133843;27;20579;-56
2020/12/11 08:06:32;;;;;;;276.33;20.50;;;3.90;99.90;;;;;;5115391;27;20042;-52
2020/12/11 08:09:36;;;;;;;37.83;6.57;;;4.20;99.90;;;;;;5116462;27;20677;-52
2020/12/11 08:12:41;;;;;;;310.05;20.55;;;4.40;99.90;;;;;;5122150;27;20134;-54
2020/12/11 08:15:46;;;;;;;161.20;13.90;;;4.40;99.90;;;;;;5124162;27;20046;-56
2020/12/11 08:18:51;;;;;;;151.07;12.20;;;4.40;99.90;;;;;;5112962;27;20031;-52
2020/12/11 08:21:55;;;;;;;20.52;6.55;;;4.50;99.90;;;;;;5112248;27;20051;-48
2020/12/11 08:25:15;;;;;;;304.33;24.98;;;4.70;99.90;;;;;;5113311;27;20043;-54
2020/12/11 08:28:19;;;;;;;36.83;15.95;;;4.60;99.90;;;;;;5116272;27;20042;-54
2020/12/11 08:31:26;;;;;;;43.42;7.57;;;4.70;99.90;;;;;;5112329;27;20394;-51
2020/12/11 08:34:31;;;;;;;19.48;6.43;;;4.90;99.90;;;;;;5119811;27;20050;-54
2020/12/11 08:37:52;;;;;;;32.97;6.88;;;5.20;99.90;;;;;;5116712;27;20047;-52
2020/12/11 08:40:56;;;;;;;363.13;22.65;;;5.60;99.90;;;;;;5122825;27;20039;-52
2020/12/11 08:44:02;;;;;;;164.88;14.45;;;5.40;99.90;;;;;;5123003;27;20500;-52
2020/12/11 08:47:42;;;;;;;153.18;13.48;;;5.40;99.90;;;;;;5117898;27;20054;-55
2020/12/11 08:50:52;;;;;;;241.65;13.73;;;5.80;99.90;;;;;;5124196;27;20038;-56
2020/12/11 08:53:57;;;;;;;45.13;5.80;;;5.90;99.90;;;;;;5118665;27;20050;-51
2020/12/11 08:57:02;;;;;;;21.23;6.13;;;6.20;99.90;;;;;;5114908;27;20039;-49
2020/12/11 09:00:06;;;;;;;304.90;21.63;;;6.30;99.90;;;;;;5116204;27;20043;-49
2020/12/11 09:03:10;;;;;;;201.68;12.27;;;6.30;99.90;;;;;;5113606;27;20038;-51
2020/12/11 09:06:14;;;;;;;13.80;5.40;;;6.20;99.90;;;;;;5116980;27;20039;-53
2020/12/11 09:09:19;;;;;;;18.45;6.88;;;6.20;99.90;;;;;;5116211;27;20050;-50
2020/12/11 09:12:23;;;;;;;13.93;6.53;;;6.40;99.90;;;;;;5116756;27;20038;-51
2020/12/11 09:15:27;;;;;;;76.45;9.27;;;6.50;99.90;;;;;;5114743;27;20054;-54
2020/12/11 09:18:32;;;;;;;80.68;7.47;;;6.80;99.90;;;;;;5110672;27;20035;-53
2020/12/11 09:21:37;;;;;;;97.03;8.63;;;7.20;99.90;;;;;;5112702;27;20121;-51
2020/12/11 09:24:41;;;;;;;85.25;7.78;;;7.50;99.90;;;;;;5113938;27;20043;-52
2020/12/11 09:27:45;;;;;;;6.63;4.25;;;7.60;99.90;;;;;;5120467;27;20046;-56
2020/12/11 09:30:50;;;;;;;176.30;12.43;;;7.90;99.90;;;;;;5128528;27;20047;-55
2020/12/11 09:33:56;;;;;;;260.75;32.03;;;8.20;99.90;;;;;;5115852;27;20047;-54
2020/12/11 09:37:03;;;;;;;500.73;39.60;;;7.80;99.90;;;;;;5111348;27;20059;-54
2020/12/11 09:40:08;;;;;;;395.58;22.75;;;7.90;99.90;;;;;;5115159;27;20048;-52
2020/12/11 09:49:35;;;;;;;465.48;26.45;;;7.10;99.90;;;;;;5115308;27;20042;-52
2020/12/11 09:55:52;;;;;;;29.30;8.27;;;6.90;99.90;;;;;;5113383;27;20050;-53
2020/12/11 09:59:00;;;;;;;8.73;6.28;;;7.20;99.90;;;;;;5112630;27;20038;-53
2020/12/11 10:05:14;;;;;;;136.32;12.55;;;7.40;99.90;;;;;;5117386;27;20102;-53
2020/12/11 10:08:18;;;;;;;126.32;11.77;;;7.50;99.90;;;;;;5116878;27;20053;-53
2020/12/11 10:11:23;;;;;;;11.68;7.70;;;7.60;99.90;;;;;;5119912;27;20043;-53
2020/12/11 10:14:35;;;;;;;47.00;8.48;;;7.80;99.90;;;;;;5113852;27;20077;-49
2020/12/11 10:18:01;;;;;;;16.02;8.15;;;8.20;99.90;;;;;;5114288;27;20532;-52
2020/12/11 10:21:06;;;;;;;38.60;9.43;;;8.70;99.90;;;;;;5119011;27;20508;-52
2020/12/11 10:24:11;;;;;;;38.78;9.07;;;8.60;99.90;;;;;;5115928;27;20513;-56
2020/12/11 10:27:15;;;;;;;25.00;9.23;;;8.70;99.90;;;;;;5113266;27;20058;-52
2020/12/11 10:30:20;;;;;;;11.98;7.80;;;9.60;99.90;;;;;;5119351;27;20050;-48
2020/12/11 10:33:24;;;;;;;10.52;7.43;;;10.90;99.90;;;;;;5116043;27;20521;-48
2020/12/11 10:36:32;;;;;;;18.27;8.10;;;11.40;99.90;;;;;;5115470;27;20038;-49
2020/12/11 10:39:38;;;;;;;11.00;7.03;;;12.20;99.90;;;;;;5117653;27;20231;-52
2020/12/11 10:42:43;;;;;;;12.68;7.63;;;14.20;99.90;;;;;;5121539;27;20219;-50
2020/12/11 10:45:50;;;;;;;9.30;6.95;;;12.60;99.90;;;;;;5125561;27;20591;-52
2020/12/11 10:48:55;;;;;;;65.38;9.90;;;11.40;99.90;;;;;;5117349;27;20051;-51
2020/12/11 10:51:59;;;;;;;18.40;9.15;;;10.70;99.90;;;;;;5113054;27;20042;-50
2020/12/11 10:55:03;;;;;;;20.95;8.90;;;11.40;99.90;;;;;;5116750;27;20049;-50
2020/12/11 10:58:08;;;;;;;11.88;7.63;;;12.60;99.90;;;;;;5113575;27;20046;-51
2020/12/11 11:01:12;;;;;;;10.13;7.78;;;14.40;99.90;;;;;;5110778;27;20038;-50
2020/12/11 11:04:17;;;;;;;13.93;8.40;;;15.90;99.90;;;;;;5109790;27;20042;-51
2020/12/11 11:07:26;;;;;;;13.00;7.82;;;15.90;99.90;;;;;;5113171;27;20085;-51
2020/12/11 11:10:34;;;;;;;8.15;6.57;;;17.50;99.90;;;;;;5109931;28;20459;-53
2020/12/11 11:14:03;;;;;;;15.05;9.45;;;18.40;99.90;;;;;;5111837;28;20452;-48
2020/12/11 11:23:57;;;;;;;12.05;7.90;;;23.20;97.70;;;;;;5117365;28;20050;-53
2020/12/11 11:27:07;;;;;;;7.68;6.80;;;23.20;93.40;;;;;;5116657;28;20043;-51
2020/12/11 11:30:12;;;;;;;8.13;6.97;;;24.00;93.70;;;;;;5115992;28;20047;-48
2020/12/11 11:33:17;;;;;;;6.80;6.13;;;23.40;93.60;;;;;;5116827;28;20034;-49
2020/12/11 11:36:22;;;;;;;7.45;6.00;;;24.30;92.50;;;;;;5128467;28;20066;-51
2020/12/11 11:39:26;;;;;;;7.22;6.47;;;24.10;91.30;;;;;;5127890;28;20046;-52
2020/12/11 11:42:30;;;;;;;7.85;7.05;;;23.20;91.30;;;;;;5127213;28;20046;-53
2020/12/11 11:45:36;;;;;;;9.40;8.20;;;21.40;92.40;;;;;;5111600;28;20047;-52
2020/12/11 11:48:43;;;;;;;77.22;11.88;;;19.60;94.10;;;;;;5110807;28;20046;-50
2020/12/11 11:55:25;;;;;;;212.15;16.15;;;14.20;99.90;;;;;;5095727;28;20078;-51
2020/12/11 11:58:31;;;;;;;33.55;11.45;;;12.50;99.90;;;;;;5109693;28;20398;-53
2020/12/11 12:01:36;;;;;;;38.55;12.07;;;12.20;99.90;;;;;;5113311;28;20038;-52
2020/12/11 12:04:41;;;;;;;39.22;10.98;;;11.90;99.90;;;;;;5110638;28;20050;-53
2020/12/11 12:07:46;;;;;;;143.93;14.57;;;11.70;99.90;;;;;;5112086;27;20504;-54
2020/12/11 12:10:50;;;;;;;63.15;12.55;;;11.60;99.90;;;;;;5118656;27;20096;-53
2020/12/11 12:13:55;;;;;;;123.95;14.88;;;11.50;99.90;;;;;;5115202;27;20070;-54
2020/12/11 12:17:04;;;;;;;29.40;11.32;;;11.40;99.90;;;;;;5111250;27;20038;-54
2020/12/11 12:20:15;;;;;;;228.65;16.90;;;11.10;99.90;;;;;;5115119;27;20043;-54
2020/12/11 12:29:54;;;;;;;222.75;17.45;;;10.60;99.90;;;;;;5114625;27;20042;-51
2020/12/11 12:46:26;;;;;;;16.02;11.35;;;15.90;99.90;;;;;;5125377;27;20045;-52
2020/12/11 12:49:30;;;;;;;16.50;12.02;;;15.60;99.90;;;;;;5115970;27;20394;-51
2020/12/11 12:52:35;;;;;;;47.15;15.10;;;14.20;99.90;;;;;;5121650;27;20080;-52
2020/12/11 12:55:42;;;;;;;38.50;12.40;;;14.20;99.90;;;;;;5114066;27;20050;-48
2020/12/11 12:58:48;;;;;;;29.67;13.10;;;12.90;99.90;;;;;;5113057;27;20042;-51
2020/12/11 13:05:07;;;;;;;18.73;12.73;;;11.70;99.90;;;;;;5113178;27;20038;-50
2020/12/11 13:08:14;;;;;;;15.15;10.75;;;11.70;99.90;;;;;;5112905;27;20046;-50
2020/12/11 13:11:18;;;;;;;22.77;11.95;;;11.90;99.90;;;;;;5113682;27;20042;-51
2020/12/11 13:14:22;;;;;;;16.88;10.82;;;11.60;99.90;;;;;;5120589;27;20512;-49
2020/12/11 13:17:28;;;;;;;21.10;12.18;;;11.30;99.90;;;;;;5127160;27;20043;-50
2020/12/11 13:20:38;;;;;;;27.85;12.48;;;11.00;99.90;;;;;;5117812;27;20631;-53
2020/12/11 13:27:24;;;;;;;18.20;11.73;;;10.60;99.90;;;;;;5099892;27;20046;-50
2020/12/11 13:30:29;;;;;;;19.10;12.30;;;10.50;99.90;;;;;;5130537;27;20512;-51
2020/12/11 13:33:34;;;;;;;19.10;11.50;;;10.50;99.90;;;;;;5131678;27;20409;-49
2020/12/11 13:36:39;;;;;;;16.70;11.20;;;10.40;99.90;;;;;;5117828;27;20043;-50
2020/12/11 13:39:43;;;;;;;24.10;13.65;;;10.30;99.90;;;;;;5113944;27;20046;-50
2020/12/11 13:42:51;;;;;;;97.57;16.48;;;9.60;99.90;;;;;;5113486;27;20047;-49
2020/12/11 13:45:57;;;;;;;135.85;19.58;;;9.10;99.90;;;;;;5112677;27;20058;-50
2020/12/11 13:49:05;;;;;;;182.90;21.10;;;8.90;99.90;;;;;;5112801;27;20054;-49
2020/12/11 13:52:11;;;;;;;431.17;29.65;;;8.80;99.90;;;;;;5112001;27;20047;-49
2020/12/11 13:55:16;;;;;;;245.65;23.83;;;8.20;99.90;;;;;;5110195;28;20521;-49
2020/12/11 13:58:21;;;;;;;480.90;32.10;;;8.10;99.90;;;;;;5111412;27;20443;-51
2020/12/11 14:01:29;;;;;;;130.88;20.42;;;8.30;99.90;;;;;;5114493;27;20039;-49
2020/12/11 14:04:33;;;;;;;485.08;29.98;;;8.30;99.90;;;;;;5108375;27;20437;-48
2020/12/11 14:07:39;;;;;;;414.40;30.52;;;8.40;99.90;;;;;;5118578;27;20129;-51
2020/12/11 14:10:43;;;;;;;569.13;36.75;;;8.50;99.90;;;;;;5109517;28;20516;-48
2020/12/11 14:13:50;;;;;;;541.22;33.20;;;8.50;99.90;;;;;;5112318;27;20047;-50
2020/12/11 14:16:58;;;;;;;428.52;29.20;;;8.20;99.90;;;;;;5122104;27;20410;-49
2020/12/11 14:23:33;;;;;;;186.77;20.35;;;8.20;99.90;;;;;;5111796;27;20547;-50
2020/12/11 14:26:40;;;;;;;189.25;23.02;;;8.30;99.90;;;;;;5110090;28;20059;-49
2020/12/11 14:29:46;;;;;;;142.90;22.63;;;8.50;99.90;;;;;;5113953;27;20046;-49
2020/12/11 14:32:51;;;;;;;106.43;22.23;;;8.50;99.90;;;;;;5117902;27;20030;-49
2020/12/11 14:35:58;;;;;;;48.15;20.80;;;8.50;99.90;;;;;;5120337;27;20042;-52
2020/12/11 14:39:11;;;;;;;76.78;23.77;;;8.50;99.90;;;;;;5122251;27;20050;-52
2020/12/11 14:42:15;;;;;;;119.07;23.85;;;8.50;99.90;;;;;;5117510;27;20054;-50
2020/12/11 14:45:21;;;;;;;125.97;24.00;;;8.30;99.90;;;;;;5125242;27;20058;-52
2020/12/11 14:48:29;;;;;;;227.98;27.60;;;8.30;99.90;;;;;;5124529;27;20055;-50
2020/12/11 14:51:38;;;;;;;417.35;35.17;;;8.10;99.90;;;;;;5109603;28;20066;-50
2020/12/11 14:54:45;;;;;;;546.63;36.05;;;7.80;99.90;;;;;;5110220;28;20047;-51
2020/12/11 14:57:53;;;;;;;596.25;37.13;;;7.00;99.90;;;;;;5112432;27;20039;-50
2020/12/11 15:00:59;;;;;;;619.78;39.88;;;6.90;99.90;;;;;;5115065;27;20047;-50
2020/12/11 15:04:09;;;;;;;495.88;36.70;;;6.80;99.90;;;;;;5110220;28;20046;-54
2020/12/11 15:07:15;;;;;;;250.88;24.13;;;6.80;99.90;;;;;;5109051;28;20050;-51
2020/12/11 15:10:23;;;;;;;214.07;28.85;;;6.80;99.90;;;;;;5109527;28;20039;-53
2020/12/11 15:13:27;;;;;;;183.68;29.38;;;6.90;99.90;;;;;;5109496;28;20042;-57
2020/12/11 15:16:34;;;;;;;71.45;14.63;;;6.90;99.90;;;;;;5109014;28;20038;-50
2020/12/11 15:19:42;;;;;;;54.42;19.52;;;6.80;99.90;;;;;;5109348;28;20595;-54
2020/12/11 15:22:50;;;;;;;147.50;36.95;;;6.70;99.90;;;;;;5109292;28;20402;-53
2020/12/11 15:25:55;;;;;;;101.07;30.83;;;6.70;99.90;;;;;;5112034;28;20038;-53
2020/12/11 15:29:01;;;;;;;271.30;37.90;;;6.50;99.90;;;;;;5109634;28;20512;-52
2020/12/11 15:32:08;;;;;;;188.90;38.72;;;6.50;99.90;;;;;;5108737;28;20050;-51
2020/12/11 15:35:13;;;;;;;1557.10;155.75;;;6.40;99.90;;;;;;5109459;28;20046;-54
2020/12/11 15:38:18;;;;;;;522.72;57.75;;;6.30;99.90;;;;;;5108346;28;20051;-51
2020/12/11 15:41:23;;;;;;;276.65;29.65;;;6.20;99.90;;;;;;5110694;28;20055;-54
2020/12/11 15:44:27;;;;;;;582.78;58.25;;;6.20;99.90;;;;;;5113385;28;20058;-54
2020/12/11 15:47:33;;;;;;;101.78;40.47;;;6.10;99.90;;;;;;5113322;28;20058;-51
2020/12/11 15:50:38;;;;;;;139.55;29.77;;;6.00;99.90;;;;;;5126824;27;20409;-51
2020/12/11 15:53:47;;;;;;;167.10;22.48;;;6.00;99.90;;;;;;5124901;27;20039;-51
2020/12/11 15:56:53;;;;;;;317.30;33.78;;;5.90;99.90;;;;;;5116276;27;20059;-53
2020/12/11 15:59:57;;;;;;;187.45;22.95;;;5.80;99.90;;;;;;5122821;27;20084;-54
2020/12/11 16:03:04;;;;;;;465.58;39.60;;;5.60;99.90;;;;;;5116317;27;20050;-50
2020/12/11 16:06:09;;;;;;;723.58;62.15;;;5.40;99.90;;;;;;5126955;27;20039;-55
2020/12/11 16:09:13;;;;;;;745.15;57.28;;;5.20;99.90;;;;;;5113464;27;20398;-53
2020/12/11 16:12:21;;;;;;;706.95;55.13;;;5.20;99.90;;;;;;5121845;27;20076;-52
2020/12/11 16:15:25;;;;;;;535.50;53.15;;;5.20;99.90;;;;;;5112287;28;20047;-51
2020/12/11 16:18:29;;;;;;;703.53;60.47;;;5.10;99.90;;;;;;5111692;27;20042;-53
2020/12/11 16:21:37;;;;;;;743.20;66.80;;;5.20;99.90;;;;;;5116041;27;21895;-54
2020/12/11 16:24:41;;;;;;;700.88;61.38;;;5.30;99.90;;;;;;5121506;27;20464;-54
2020/12/11 16:27:45;;;;;;;753.58;72.47;;;5.20;99.90;;;;;;5128612;27;20476;-52
2020/12/11 16:30:49;;;;;;;208.00;41.97;;;5.20;99.90;;;;;;5120198;27;20418;-52
2020/12/11 16:33:56;;;;;;;678.72;59.17;;;5.20;99.90;;;;;;5117179;27;20100;-50
2020/12/11 16:37:00;;;;;;;187.63;28.98;;;5.30;99.90;;;;;;5123885;27;20051;-52
2020/12/11 16:40:05;;;;;;;496.65;51.22;;;5.40;99.90;;;;;;5113368;27;20440;-56
2020/12/11 16:43:19;;;;;;;306.23;32.10;;;5.40;99.90;;;;;;5114276;27;20058;-56
2020/12/11 16:46:25;;;;;;;542.03;47.88;;;5.50;99.90;;;;;;5120020;27;20046;-54